Bookmark and Share
Track history (hours):
 

Norman Voyager

Last reported at 2014-Apr-24 03:10 UTC. Time now 2014-Apr-24 03:50 UTC.
Position N 50°09' W 000°39'.

Length 187 m; draft 6 m.

Type: Ship. MMSI: 228022900.

NotesDate/timePositionNaut miles runAvg speedWind from/ knotsBaromVisibWave heightAir tempDewpointWater temp
2014-Apr-24 03:10N 50°09' W 000°39'2212.4
2014-Apr-24 01:24N 49°48' W 000°29'1112.5
2014-Apr-24 00:33N 49°38' W 000°23'1111.3
2014-Apr-23 23:33N 49°28' W 000°18'1 0.7
2014-Apr-23 22:33N 49°27' W 000°17'1 1.5
2014-Apr-23 21:33N 49°28' W 000°15'1312.7
2014-Apr-23 20:33N 49°29' E 000°05'1 1.4
2014-Apr-23 19:33N 49°29' E 000°07'0 0.0
2014-Apr-23 18:33N 49°29' E 000°07'0 0.0
2014-Apr-23 17:33N 49°29' E 000°07'0 0.0
2014-Apr-23 16:33N 49°29' E 000°07'1010.2
2014-Apr-23 15:33N 49°36' W 000°04'4518.5
2014-Apr-23 13:06N 50°17' W 000°37'1221.2
2014-Apr-23 12:33N 50°27' W 000°46'2020.4
2014-Apr-23 11:33N 50°44' W 001°03'5 5.1
2014-Apr-23 10:34N 50°49' W 001°06'0 0.0
2014-Apr-23 09:34N 50°49' W 001°06'0 0.0
2014-Apr-23 08:34N 50°49' W 001°06'0 0.0
2014-Apr-23 07:34N 50°49' W 001°06'1 0.8
2014-Apr-23 06:34N 50°48' W 001°07'1616.1
2014-Apr-23 05:33N 50°35' W 000°52'4811.4
2014-Apr-23 01:19N 49°48' W 000°32'20 9.7
2014-Apr-22 23:18N 49°32' W 000°48'1114.8
2014-Apr-22 22:33N 49°29' W 000°32'1212.3
2014-Apr-22 21:34N 49°31' W 000°14'1312.6
2014-Apr-22 20:33N 49°29' E 000°05'1 0.9
2014-Apr-22 19:33N 49°29' E 000°07'0 0.0
2014-Apr-22 18:33N 49°29' E 000°07'0 0.0
2014-Apr-22 17:33N 49°29' E 000°07'0 0.0
2014-Apr-22 16:33N 49°29' E 000°07'9 9.1
2014-Apr-22 15:33N 49°36' W 000°02'4319.7
2014-Apr-22 13:24N 50°13' W 000°34'1720.1
2014-Apr-22 12:34N 50°28' W 000°46'2019.6
2014-Apr-22 11:33N 50°44' W 001°04'5 4.6
2014-Apr-22 10:33N 50°49' W 001°06'0 0.0
2014-Apr-22 09:33N 50°49' W 001°06'0 0.0
2014-Apr-22 08:33N 50°49' W 001°06'0 0.0
2014-Apr-22 07:33N 50°49' W 001°06'4 4.3
2014-Apr-22 06:33N 50°44' W 001°05'1716.8
2014-Apr-22 05:33N 50°32' W 000°47'1614.9
2014-Apr-22 04:30N 50°18' W 000°36'4314.5
2014-Apr-22 01:31N 49°41' W 000°01'2 2.0
2014-Apr-22 00:33N 49°39' E 000°00'2 1.8
2014-Apr-21 23:33N 49°39' W 000°02'1010.4
2014-Apr-21 22:34N 49°29' E 000°05'1 1.2
2014-Apr-21 21:34N 49°29' E 000°07'7 6.8
2014-Apr-21 20:34N 49°33' W 000°02'5121.4
2014-Apr-21 18:10N 50°17' W 000°42'1322.0
2014-Apr-21 17:33N 50°30' W 000°49'1919.2
2014-Apr-21 16:33N 50°46' W 001°05'3 2.8
2014-Apr-21 15:33N 50°49' W 001°06'0 0.0
2014-Apr-21 14:34N 50°49' W 001°06'2 2.0
2014-Apr-21 13:33N 50°47' W 001°06'1212.4
2014-Apr-21 12:34N 50°34' W 001°08'2019.8
2014-Apr-21 11:33N 50°20' W 001°29'2222.1
2014-Apr-21 10:34N 50°07' W 001°58'159 4.0
2014-Apr-19 18:33N 48°13' W 004°46'16220.2
2014-Apr-19 10:33N 50°14' W 002°01'2020.0
2014-Apr-19 09:34N 50°24' W 001°35'2019.7
2014-Apr-19 08:34N 50°33' W 001°08'1414.1
2014-Apr-19 07:33N 50°47' W 001°06'2 1.7
2014-Apr-19 06:34N 50°49' W 001°06'0 0.0
2014-Apr-19 05:33N 50°49' W 001°06'0 0.0
2014-Apr-19 04:33N 50°49' W 001°06'5 4.7
2014-Apr-19 03:33N 50°44' W 001°04'1413.8
2014-Apr-19 02:33N 50°32' W 000°54'1212.4
2014-Apr-19 01:33N 50°22' W 000°43'4511.3
2014-Apr-18 21:33N 49°42' W 000°08'1211.8
2014-Apr-18 20:33N 49°32' W 000°00'5 5.1
2014-Apr-18 19:33N 49°29' E 000°07'0 0.0
2014-Apr-18 18:33N 49°29' E 000°07'0 0.0
2014-Apr-18 17:33N 49°29' E 000°07'0 0.0
2014-Apr-18 16:33N 49°29' E 000°07'10 9.6
2014-Apr-18 15:33N 49°36' W 000°04'5819.4
2014-Apr-18 12:33N 50°28' W 000°46'1919.5
2014-Apr-18 11:33N 50°44' W 001°03'5 5.3
2014-Apr-18 10:33N 50°49' W 001°06'0 0.0
2014-Apr-18 09:33N 50°49' W 001°06'0 0.0
2014-Apr-18 08:34N 50°49' W 001°06'0 0.0
2014-Apr-18 07:34N 50°49' W 001°06'1 0.9
2014-Apr-18 06:33N 50°48' W 001°07'1413.9
2014-Apr-18 05:33N 50°37' W 000°54'1414.1
2014-Apr-18 04:33N 50°24' W 000°47'2913.3
2014-Apr-18 02:21N 49°57' W 000°27'1113.6
2014-Apr-18 01:33N 49°47' W 000°21'1413.7
2014-Apr-18 00:33N 49°34' W 000°13'7 6.9
2014-Apr-17 23:33N 49°28' W 000°09'2 1.8
2014-Apr-17 22:33N 49°28' W 000°12'2 2.3
2014-Apr-17 21:33N 49°28' W 000°15'1212.0
2014-Apr-17 20:33N 49°30' E 000°03'3 2.5
2014-Apr-17 19:33N 49°29' E 000°07'0 0.0
2014-Apr-17 18:33N 49°29' E 000°07'0 0.0
2014-Apr-17 17:33N 49°29' E 000°07'0 0.0
2014-Apr-17 16:33N 49°29' E 000°07'9 8.6
2014-Apr-17 15:33N 49°35' W 000°03'2620.0
2014-Apr-17 14:14N 49°58' W 000°24'1420.1
2014-Apr-17 13:33N 50°10' W 000°34'2020.3
2014-Apr-17 12:33N 50°28' W 000°47'1919.3
2014-Apr-17 11:34N 50°44' W 001°04'5 4.8
2014-Apr-17 10:33N 50°49' W 001°06'0 0.0
2014-Apr-17 09:33N 50°49' W 001°06'0 0.0
2014-Apr-17 08:33N 50°49' W 001°06'0 0.0
2014-Apr-17 07:34N 50°49' W 001°06'1 0.6
2014-Apr-17 06:34N 50°48' W 001°07'1312.7
2014-Apr-17 05:33N 50°38' W 000°55'1111.0
2014-Apr-17 04:33N 50°29' W 000°47'1110.7
2014-Apr-17 03:33N 50°19' W 000°39'1010.4
2014-Apr-17 02:33N 50°10' W 000°31'1110.7
2014-Apr-17 01:31N 49°60' W 000°24'1010.6
2014-Apr-17 00:33N 49°51' W 000°17'2222.2
2014-Apr-16 23:33N 49°29' W 000°10'2 1.7
2014-Apr-16 22:33N 49°28' W 000°10'0 0.4
2014-Apr-16 21:33N 49°27' W 000°11'1010.5
2014-Apr-16 20:33N 49°29' E 000°05'1 1.0
2014-Apr-16 19:33N 49°29' E 000°07'0 0.0
2014-Apr-16 18:33N 49°29' E 000°07'0 0.0
2014-Apr-16 17:33N 49°29' E 000°07'0 0.0
2014-Apr-16 16:33N 49°29' E 000°07'8 7.9
2014-Apr-16 15:33N 49°34' W 000°02'2520.2
2014-Apr-16 14:18N 49°56' W 000°22'1619.9
2014-Apr-16 13:30N 50°10' W 000°36'1920.4
2014-Apr-16 12:33N 50°28' W 000°46'2020.4
2014-Apr-16 11:34N 50°44' W 001°04'5 4.5
2014-Apr-16 10:34N 50°49' W 001°06'0 0.0
2014-Apr-16 09:34N 50°49' W 001°06'0 0.0
2014-Apr-16 08:34N 50°49' W 001°06'0 0.0
2014-Apr-16 07:34N 50°49' W 001°06'1 0.7
2014-Apr-16 06:34N 50°48' W 001°07'1312.6
2014-Apr-16 05:33N 50°38' W 000°55'1312.8
2014-Apr-16 04:33N 50°27' W 000°45'1312.1
2014-Apr-16 03:29N 50°15' W 000°37'1211.9
2014-Apr-16 02:31N 50°04' W 000°32'2412.4
2014-Apr-16 00:33N 49°41' W 000°18'1212.4
2014-Apr-15 23:33N 49°30' W 000°12'3 2.6
2014-Apr-15 22:33N 49°27' W 000°12'1 0.8
2014-Apr-15 21:33N 49°27' W 000°11'1111.0
2014-Apr-15 20:33N 49°29' E 000°06'1 0.5
2014-Apr-15 19:33N 49°29' E 000°07'0 0.0
2014-Apr-15 18:33N 49°29' E 000°07'0 0.0
2014-Apr-15 17:34N 49°29' E 000°07'0 0.0
2014-Apr-15 16:33N 49°29' E 000°07'8 7.9
2014-Apr-15 15:34N 49°34' W 000°03'6215.4
2014-Apr-15 11:34N 50°28' W 000°48'1919.3
2014-Apr-15 10:34N 50°45' W 001°05'4 4.2
2014-Apr-15 09:34N 50°49' W 001°06'0 0.0
2014-Apr-15 08:34N 50°49' W 001°06'0 0.0
2014-Apr-15 07:34N 50°49' W 001°06'0 0.0
2014-Apr-15 06:34N 50°49' W 001°06'7 6.7
2014-Apr-15 05:34N 50°43' W 001°00'2412.0
2014-Apr-15 03:34N 50°22' W 000°41'1312.4
2014-Apr-15 02:33N 50°11' W 000°33'3612.1
2014-Apr-14 23:33N 49°39' W 000°06'1211.7
2014-Apr-14 22:34N 49°29' E 000°04'2 1.6
2014-Apr-14 21:34N 49°29' E 000°07'0 0.0
2014-Apr-14 20:34N 49°29' E 000°07'7 7.2
2014-Apr-14 19:34N 49°34' W 000°02'4622.8
2014-Apr-14 17:34N 50°15' W 000°33'2322.9
2014-Apr-14 16:34N 50°34' W 000°51'1717.3
2014-Apr-14 15:34N 50°48' W 001°07'1 0.7
2014-Apr-14 14:34N 50°49' W 001°06'0 0.0
2014-Apr-14 13:34N 50°49' W 001°06'15 7.3
2014-Apr-14 11:34N 50°34' W 001°08'2019.8
2014-Apr-14 10:33N 50°20' W 001°30'2120.5
2014-Apr-14 09:33N 50°08' W 001°56'  

Dump ship's entire track history

sailing weather and tide predictions

Norman Voyager — FIDP — position and weather